createdAt,value
2023-05-10T00:01:35.227Z,102247.77
2023-05-10T00:04:02.262Z,102245.33
2023-05-10T00:06:29.364Z,102243.61
2023-05-10T00:08:56.496Z,102243.11
2023-05-10T00:11:23.454Z,102243.98
2023-05-10T00:13:50.503Z,102243.83
2023-05-10T00:16:17.514Z,102245.59
2023-05-10T00:18:44.496Z,102242.80
2023-05-10T00:21:11.543Z,102240.35
2023-05-10T00:23:38.753Z,102240.52
2023-05-10T00:26:05.827Z,102240.34
2023-05-10T00:28:32.791Z,102244.86
2023-05-10T00:30:59.773Z,102242.45
2023-05-10T00:33:26.887Z,102244.05
2023-05-10T00:35:53.932Z,102240.56
2023-05-10T00:38:20.880Z,102242.67
2023-05-10T00:40:47.835Z,102241.52
2023-05-10T00:43:20.926Z,102244.33
2023-05-10T00:45:48.369Z,102242.75
2023-05-10T00:48:15.456Z,102240.66
2023-05-10T00:50:42.495Z,102240.80
2023-05-10T00:53:09.970Z,102240.41
2023-05-10T00:55:37.189Z,102241.23
2023-05-10T00:58:04.590Z,102238.41
2023-05-10T01:00:31.609Z,102237.86
2023-05-10T01:02:58.657Z,102241.34
2023-05-10T01:05:25.824Z,102240.98
2023-05-10T01:07:52.813Z,102239.80
2023-05-10T01:10:19.955Z,102240.50
2023-05-10T01:12:47.828Z,102236.20
2023-05-10T01:15:15.706Z,102239.07
2023-05-10T01:17:43.916Z,102234.92
2023-05-10T01:20:11.244Z,102239.64
2023-05-10T01:23:00.308Z,102236.64
2023-05-10T01:25:34.298Z,102235.20
2023-05-10T01:28:15.419Z,102236.23
2023-05-10T01:30:54.516Z,102234.30
2023-05-10T01:33:26.304Z,102231.52
2023-05-10T01:35:58.751Z,102229.77
2023-05-10T01:39:04.766Z,102231.02
2023-05-10T01:42:10.897Z,102230.16
2023-05-10T01:44:58.772Z,102227.73
2023-05-10T01:47:45.052Z,102229.65
2023-05-10T01:50:20.505Z,102225.62
2023-05-10T01:52:51.572Z,102221.05
2023-05-10T01:55:19.899Z,102221.90
2023-05-10T01:57:47.663Z,102218.02
2023-05-10T02:00:15.035Z,102220.13
2023-05-10T02:02:44.326Z,102218.91
2023-05-10T02:05:12.007Z,102220.33
2023-05-10T02:07:39.066Z,102220.33
2023-05-10T02:10:09.032Z,102218.58
2023-05-10T02:12:47.276Z,102220.66
2023-05-10T02:15:16.773Z,102217.32
2023-05-10T02:17:44.827Z,102219.40
2023-05-10T02:20:11.994Z,102216.92
2023-05-10T02:22:39.255Z,102216.70
2023-05-10T02:25:06.666Z,102215.95
2023-05-10T02:27:33.654Z,102215.92
2023-05-10T02:30:00.760Z,102216.92
2023-05-10T02:32:28.162Z,102220.02
2023-05-10T02:34:55.128Z,102219.10
2023-05-10T02:37:22.175Z,102220.98
2023-05-10T02:39:49.975Z,102221.10
2023-05-10T02:42:20.922Z,102220.30
2023-05-10T02:44:49.220Z,102223.05
2023-05-10T02:47:16.261Z,102224.55
2023-05-10T02:49:43.379Z,102226.23
2023-05-10T02:52:10.373Z,102226.38
2023-05-10T02:54:47.011Z,102227.20
2023-05-10T02:57:19.280Z,102227.69
2023-05-10T02:59:46.575Z,102228.50
2023-05-10T03:02:13.950Z,102231.43
2023-05-10T03:04:40.964Z,102234.38
2023-05-10T03:07:08.281Z,102231.23
2023-05-10T03:09:35.645Z,102229.97
2023-05-10T03:12:03.287Z,102231.02
2023-05-10T03:14:33.391Z,102232.77
2023-05-10T03:17:06.073Z,102232.27
2023-05-10T03:19:57.414Z,102233.47
2023-05-10T03:22:32.219Z,102236.96
2023-05-10T03:24:59.180Z,102241.86
2023-05-10T03:27:28.441Z,102244.98
2023-05-10T03:29:56.439Z,102245.85
2023-05-10T03:32:23.928Z,102243.66
2023-05-10T03:34:51.067Z,102241.21
2023-05-10T03:37:18.061Z,102239.97
2023-05-10T03:39:45.069Z,102241.15
2023-05-10T03:42:13.103Z,102237.77
2023-05-10T03:44:40.900Z,102238.19
2023-05-10T03:47:07.996Z,102239.65
2023-05-10T03:49:35.161Z,102245.70
2023-05-10T03:52:02.644Z,102248.29
2023-05-10T03:54:29.602Z,102251.04
2023-05-10T03:56:56.546Z,102250.42
2023-05-10T03:59:23.848Z,102252.23
2023-05-10T04:01:52.106Z,102254.22
2023-05-10T04:04:19.955Z,102256.81
2023-05-10T04:06:48.754Z,102257.16
2023-05-10T04:09:16.080Z,102257.00
2023-05-10T04:11:43.110Z,102259.30
2023-05-10T04:14:10.207Z,102259.65
2023-05-10T04:16:37.206Z,102260.14
2023-05-10T04:19:04.882Z,102258.38
2023-05-10T04:21:32.036Z,102258.12
2023-05-10T04:23:59.023Z,102257.33
2023-05-10T04:26:26.740Z,102255.42
2023-05-10T04:28:53.686Z,102258.84
2023-05-10T04:31:20.791Z,102259.46
2023-05-10T04:33:47.766Z,102257.23
2023-05-10T04:36:14.709Z,102261.81
2023-05-10T04:38:41.769Z,102255.71
2023-05-10T04:41:09.384Z,102256.65
2023-05-10T04:43:36.558Z,102254.80
2023-05-10T04:46:03.827Z,102260.64
2023-05-10T04:48:30.959Z,102259.41
2023-05-10T04:50:58.072Z,102263.88
2023-05-10T04:53:25.015Z,102262.85
2023-05-10T04:55:51.949Z,102260.57
2023-05-10T04:58:18.908Z,102259.15
2023-05-10T05:00:45.901Z,102258.62
2023-05-10T05:03:12.928Z,102262.41
2023-05-10T05:05:40.023Z,102261.54
2023-05-10T05:08:07.027Z,102265.94
2023-05-10T05:10:33.976Z,102265.30
2023-05-10T05:13:01.110Z,102260.18
2023-05-10T05:15:28.528Z,102261.83
2023-05-10T05:17:55.597Z,102260.20
2023-05-10T05:20:22.625Z,102261.30
2023-05-10T05:22:49.575Z,102261.66
2023-05-10T05:25:17.040Z,102262.04
2023-05-10T05:27:44.050Z,102260.78
2023-05-10T05:30:11.331Z,102261.06
2023-05-10T05:32:38.337Z,102263.27
2023-05-10T05:35:06.005Z,102261.59
2023-05-10T05:37:33.279Z,102260.19
2023-05-10T05:40:02.283Z,102262.81
2023-05-10T05:42:29.252Z,102265.39
2023-05-10T05:44:56.350Z,102262.14
2023-05-10T05:47:23.341Z,102264.48
2023-05-10T05:49:50.318Z,102260.23
2023-05-10T05:52:17.331Z,102262.53
2023-05-10T05:54:44.412Z,102264.27
2023-05-10T05:57:11.385Z,102262.68
2023-05-10T05:59:42.979Z,102258.92
2023-05-10T06:02:10.280Z,102259.49
2023-05-10T06:04:37.440Z,102260.49
2023-05-10T06:07:04.460Z,102255.70
2023-05-10T06:09:31.472Z,102258.66
2023-05-10T06:11:58.484Z,102257.91
2023-05-10T06:14:25.472Z,102256.84
2023-05-10T06:16:52.505Z,102260.14
2023-05-10T06:19:19.600Z,102260.73
2023-05-10T06:21:46.542Z,102258.48
2023-05-10T06:24:13.513Z,102260.65
2023-05-10T06:26:40.665Z,102262.05
2023-05-10T06:29:07.624Z,102257.59
2023-05-10T06:31:34.721Z,102257.91
2023-05-10T06:34:01.759Z,102255.47
2023-05-10T06:36:28.726Z,102255.98
2023-05-10T06:38:55.963Z,102256.98
2023-05-10T06:41:24.722Z,102257.02
2023-05-10T06:43:51.901Z,102256.46
2023-05-10T06:46:18.931Z,102257.81
2023-05-10T06:48:45.930Z,102264.92
2023-05-10T06:51:12.940Z,102261.59
2023-05-10T06:53:39.883Z,102263.44
2023-05-10T06:56:07.021Z,102265.34
2023-05-10T06:58:34.025Z,102266.13
2023-05-10T07:01:05.284Z,102262.23
2023-05-10T07:03:32.521Z,102262.27
2023-05-10T07:06:06.176Z,102262.73
2023-05-10T07:08:33.180Z,102264.39
2023-05-10T07:11:04.453Z,102265.06
2023-05-10T07:13:32.443Z,102265.02
2023-05-10T07:16:00.214Z,102268.89
2023-05-10T07:18:27.429Z,102269.59
2023-05-10T07:20:54.574Z,102274.48
2023-05-10T07:23:21.624Z,102272.83
2023-05-10T07:25:49.244Z,102270.91
2023-05-10T07:28:16.540Z,102272.08
2023-05-10T07:30:43.558Z,102271.70
2023-05-10T07:33:11.328Z,102270.52
2023-05-10T07:35:38.424Z,102272.74
2023-05-10T07:38:05.373Z,102267.48
2023-05-10T07:40:32.452Z,102264.25
2023-05-10T07:42:59.717Z,102262.59
2023-05-10T07:45:26.761Z,102259.69
2023-05-10T07:47:53.925Z,102260.08
2023-05-10T07:50:22.247Z,102260.60
2023-05-10T07:52:49.361Z,102257.95
2023-05-10T07:55:16.902Z,102258.98
2023-05-10T07:57:44.134Z,102263.14
2023-05-10T08:00:13.887Z,102264.17
2023-05-10T08:02:41.276Z,102267.36
2023-05-10T08:05:08.907Z,102264.14
2023-05-10T08:07:35.868Z,102266.04
2023-05-10T08:10:03.854Z,102266.19
2023-05-10T08:12:31.452Z,102261.47
2023-05-10T08:14:58.907Z,102263.48
2023-05-10T08:17:25.951Z,102263.64
2023-05-10T08:19:52.986Z,102260.70
2023-05-10T08:22:19.928Z,102261.77
2023-05-10T08:24:46.880Z,102261.77
2023-05-10T08:27:13.845Z,102262.05
2023-05-10T08:29:49.397Z,102259.30
2023-05-10T08:32:18.017Z,102256.00
2023-05-10T08:34:44.985Z,102260.85
2023-05-10T08:37:14.448Z,102259.20
2023-05-10T08:39:41.833Z,102262.09
2023-05-10T08:42:09.441Z,102262.73
2023-05-10T08:44:37.760Z,102263.28
2023-05-10T08:47:08.505Z,102266.23
2023-05-10T08:49:35.946Z,102258.52
2023-05-10T08:52:05.161Z,102260.52
2023-05-10T08:54:35.490Z,102259.41
2023-05-10T08:57:02.746Z,102259.25
2023-05-10T08:59:29.873Z,102259.98
2023-05-10T09:02:00.625Z,102258.65
2023-05-10T09:04:27.848Z,102261.00
2023-05-10T09:06:55.082Z,102262.69
2023-05-10T09:09:22.276Z,102260.42
2023-05-10T09:11:49.237Z,102258.80
2023-05-10T09:14:16.270Z,102257.81
2023-05-10T09:16:43.272Z,102254.66
2023-05-10T09:19:10.501Z,102253.92
2023-05-10T09:21:40.366Z,102254.39
2023-05-10T09:24:08.273Z,102251.58
2023-05-10T09:26:36.768Z,102255.21
2023-05-10T09:29:04.121Z,102255.00
2023-05-10T09:31:55.743Z,102257.46
2023-05-10T09:34:32.203Z,102255.27
2023-05-10T09:37:02.101Z,102257.23
2023-05-10T09:39:36.674Z,102258.70
2023-05-10T09:42:08.179Z,102255.45
2023-05-10T09:44:35.241Z,102254.99
2023-05-10T09:47:02.785Z,102257.94
2023-05-10T09:49:29.842Z,102254.30
2023-05-10T09:52:09.322Z,102257.52
2023-05-10T09:54:37.097Z,102252.51
2023-05-10T09:57:04.547Z,102255.35
2023-05-10T09:59:32.459Z,102255.55
2023-05-10T10:01:59.839Z,102255.17
2023-05-10T10:04:27.062Z,102258.02
2023-05-10T10:07:01.866Z,102256.41
2023-05-10T10:09:28.949Z,102258.83
2023-05-10T10:11:56.370Z,102259.75
2023-05-10T10:14:26.356Z,102257.70
2023-05-10T10:17:06.557Z,102257.36
2023-05-10T10:19:36.427Z,102252.19
2023-05-10T10:22:04.022Z,102256.33
2023-05-10T10:24:31.082Z,102253.50
2023-05-10T10:27:05.869Z,102256.89
2023-05-10T10:29:38.277Z,102258.07
2023-05-10T10:32:11.262Z,102258.30
2023-05-10T10:34:38.211Z,102255.93
2023-05-10T10:37:05.995Z,102255.14
2023-05-10T10:39:33.028Z,102254.08
2023-05-10T10:42:00.169Z,102254.35
2023-05-10T10:44:34.989Z,102254.34
2023-05-10T10:47:24.314Z,102255.30
2023-05-10T10:49:53.144Z,102258.59
2023-05-10T10:52:34.388Z,102260.05
2023-05-10T10:55:12.399Z,102259.65
2023-05-10T10:57:42.602Z,102254.08
2023-05-10T11:00:25.878Z,102253.31
2023-05-10T11:02:53.699Z,102254.16
2023-05-10T11:05:29.671Z,102257.45
2023-05-10T11:07:57.750Z,102255.39
2023-05-10T11:10:25.346Z,102255.71
2023-05-10T11:13:11.592Z,102252.27
2023-05-10T11:15:40.048Z,102256.08
2023-05-10T11:18:22.275Z,102256.70
2023-05-10T11:20:53.107Z,102257.04
2023-05-10T11:23:21.284Z,102255.36
2023-05-10T11:25:48.942Z,102255.90
2023-05-10T11:28:16.169Z,102259.66
2023-05-10T11:30:44.477Z,102260.21
2023-05-10T11:33:16.485Z,102262.95
2023-05-10T11:35:43.862Z,102264.38
2023-05-10T11:38:11.460Z,102263.06
2023-05-10T11:40:38.843Z,102262.72
2023-05-10T11:43:06.728Z,102265.70
2023-05-10T11:45:34.251Z,102265.70
2023-05-10T11:48:01.418Z,102265.45
2023-05-10T11:50:28.429Z,102266.63
2023-05-10T11:52:56.358Z,102264.27
2023-05-10T11:55:23.813Z,102266.50
2023-05-10T11:57:54.909Z,102265.85
2023-05-10T12:00:22.399Z,102263.48
2023-05-10T12:02:49.746Z,102266.79
2023-05-10T12:05:16.819Z,102265.04
2023-05-10T12:07:43.932Z,102264.58
2023-05-10T12:10:11.682Z,102263.16
2023-05-10T12:12:39.388Z,102264.70
2023-05-10T12:15:07.783Z,102263.39
2023-05-10T12:17:34.814Z,102259.64
2023-05-10T12:20:16.337Z,102256.88
2023-05-10T12:22:58.325Z,102259.17
2023-05-10T12:25:31.372Z,102257.54
2023-05-10T12:27:59.286Z,102254.16
2023-05-10T12:30:27.766Z,102249.46
2023-05-10T12:32:55.025Z,102248.83
2023-05-10T12:35:23.013Z,102244.31
2023-05-10T12:37:50.093Z,102241.01
2023-05-10T12:40:17.220Z,102243.73
2023-05-10T12:42:46.087Z,102243.85
2023-05-10T12:45:13.309Z,102241.64
2023-05-10T12:47:43.080Z,102241.56
2023-05-10T12:50:11.573Z,102240.86
2023-05-10T12:52:38.570Z,102241.25
2023-05-10T12:55:05.838Z,102239.69
2023-05-10T12:57:32.877Z,102236.88
2023-05-10T12:59:59.887Z,102236.86
2023-05-10T13:02:27.292Z,102231.92
2023-05-10T13:04:54.414Z,102234.02
2023-05-10T13:07:21.432Z,102231.27
2023-05-10T13:09:48.391Z,102227.29
2023-05-10T13:12:15.384Z,102227.38
2023-05-10T13:14:42.487Z,102224.75
2023-05-10T13:17:09.593Z,102226.47
2023-05-10T13:19:36.694Z,102227.64
2023-05-10T13:22:03.937Z,102226.77
2023-05-10T13:24:31.344Z,102224.81
2023-05-10T13:26:59.329Z,102221.92
2023-05-10T13:29:26.331Z,102222.27
2023-05-10T13:31:53.378Z,102223.66
2023-05-10T13:34:21.757Z,102224.78
2023-05-10T13:36:49.151Z,102226.29
2023-05-10T13:39:16.297Z,102223.66
2023-05-10T13:41:43.333Z,102223.50
2023-05-10T13:44:10.344Z,102225.25
2023-05-10T13:46:37.407Z,102225.60
2023-05-10T13:49:04.447Z,102222.88
2023-05-10T13:51:32.760Z,102224.77
2023-05-10T13:53:59.805Z,102219.06
2023-05-10T13:56:26.755Z,102222.09
2023-05-10T13:58:54.021Z,102222.61
2023-05-10T14:01:21.147Z,102222.60
2023-05-10T14:03:48.342Z,102223.79
2023-05-10T14:06:15.521Z,102228.14
2023-05-10T14:08:42.852Z,102231.23
2023-05-10T14:11:09.968Z,102232.58
2023-05-10T14:13:36.962Z,102230.19
2023-05-10T14:16:04.655Z,102227.08
2023-05-10T14:18:31.945Z,102226.32
2023-05-10T14:20:58.948Z,102224.83
2023-05-10T14:23:26.061Z,102227.11
2023-05-10T14:25:53.590Z,102223.74
2023-05-10T14:28:21.843Z,102224.64
2023-05-10T14:30:48.942Z,102224.85
2023-05-10T14:33:16.075Z,102224.15
2023-05-10T14:35:43.093Z,102222.58
2023-05-10T14:38:10.264Z,102219.23
2023-05-10T14:40:37.431Z,102222.61
2023-05-10T14:43:04.381Z,102221.40
2023-05-10T14:45:31.577Z,102215.10
2023-05-10T14:47:58.844Z,102210.93
2023-05-10T14:53:00.147Z,102206.66
2023-05-10T14:55:27.238Z,102207.61
2023-05-10T14:57:54.422Z,102209.02
2023-05-10T15:00:22.063Z,102206.73
2023-05-10T15:02:49.792Z,102203.92
2023-05-10T15:05:17.940Z,102206.30
2023-05-10T15:07:45.493Z,102203.52
2023-05-10T15:10:12.691Z,102204.67
2023-05-10T15:12:39.703Z,102202.76
2023-05-10T15:15:07.543Z,102205.36
2023-05-10T15:17:35.079Z,102202.63
2023-05-10T15:20:04.620Z,102204.60
2023-05-10T15:22:34.312Z,102207.14
2023-05-10T15:25:01.539Z,102208.27
2023-05-10T15:27:28.610Z,102205.55
2023-05-10T15:29:56.386Z,102206.20
2023-05-10T15:32:23.416Z,102206.63
2023-05-10T15:34:50.398Z,102201.66
2023-05-10T15:37:17.368Z,102204.92
2023-05-10T15:39:45.116Z,102207.75
2023-05-10T15:42:12.270Z,102206.86
2023-05-10T15:44:39.739Z,102210.04
2023-05-10T15:47:07.077Z,102206.35
2023-05-10T15:49:34.330Z,102204.92
2023-05-10T15:52:01.349Z,102207.48
2023-05-10T15:54:28.595Z,102212.67
2023-05-10T15:56:55.672Z,102212.42
2023-05-10T15:59:22.701Z,102213.58
2023-05-10T16:01:50.425Z,102218.09
2023-05-10T16:04:17.498Z,102218.15
2023-05-10T16:06:44.531Z,102218.56
2023-05-10T16:09:11.514Z,102220.11
2023-05-10T16:11:38.486Z,102222.34
2023-05-10T16:14:07.264Z,102224.52
2023-05-10T16:16:34.888Z,102224.97
2023-05-10T16:19:03.876Z,102225.27
2023-05-10T16:21:32.854Z,102225.77
2023-05-10T16:24:03.102Z,102226.95
2023-05-10T16:26:30.086Z,102229.63
2023-05-10T16:28:57.145Z,102231.17
2023-05-10T16:31:24.684Z,102237.11
2023-05-10T16:33:51.867Z,102234.41
2023-05-10T16:36:18.846Z,102237.54
2023-05-10T16:38:45.929Z,102236.91
2023-05-10T16:41:12.935Z,102237.85
2023-05-10T16:43:40.054Z,102240.39
2023-05-10T16:46:11.006Z,102240.34
2023-05-10T16:48:38.313Z,102244.09
2023-05-10T16:51:05.277Z,102249.45
2023-05-10T16:53:32.734Z,102246.11
2023-05-10T16:55:59.830Z,102250.34
2023-05-10T16:58:27.015Z,102251.59
2023-05-10T17:00:53.969Z,102256.52
2023-05-10T17:03:21.211Z,102256.16
2023-05-10T17:05:48.656Z,102257.02
2023-05-10T17:08:16.294Z,102264.00
2023-05-10T17:10:43.345Z,102272.06
2023-05-10T17:13:10.713Z,102271.16
2023-05-10T17:15:38.731Z,102272.34
2023-05-10T17:18:07.181Z,102272.61
2023-05-10T17:20:34.602Z,102269.90
2023-05-10T17:23:03.408Z,102274.20
2023-05-10T17:25:30.493Z,102277.84
2023-05-10T17:27:57.495Z,102284.61
2023-05-10T17:30:27.671Z,102287.52
2023-05-10T17:32:54.869Z,102292.19
2023-05-10T17:35:21.872Z,102293.87
2023-05-10T17:37:48.901Z,102297.84
2023-05-10T17:40:15.936Z,102299.16
2023-05-10T17:42:42.939Z,102297.71
2023-05-10T17:45:10.683Z,102294.52
2023-05-10T17:47:38.118Z,102290.74
2023-05-10T17:50:06.215Z,102286.84
2023-05-10T17:52:33.722Z,102294.13
2023-05-10T17:55:01.135Z,102300.41
2023-05-10T17:57:28.264Z,102305.08
2023-05-10T17:59:55.241Z,102310.31
2023-05-10T18:02:22.238Z,102315.71
2023-05-10T18:04:49.609Z,102313.39
2023-05-10T18:07:16.808Z,102313.33
2023-05-10T18:09:43.858Z,102319.92
2023-05-10T18:12:10.947Z,102322.79
2023-05-10T18:14:41.085Z,102321.67
2023-05-10T18:17:09.635Z,102322.77
2023-05-10T18:19:36.975Z,102320.77
2023-05-10T18:22:04.375Z,102324.71
2023-05-10T18:24:38.470Z,102326.36
2023-05-10T18:27:10.396Z,102324.89
2023-05-10T18:29:37.786Z,102323.73
2023-05-10T18:32:05.045Z,102322.77
2023-05-10T18:34:32.011Z,102323.90
2023-05-10T18:36:59.583Z,102328.03
2023-05-10T18:39:26.572Z,102330.02
2023-05-10T18:41:53.642Z,102332.91
2023-05-10T18:44:22.061Z,102334.70
2023-05-10T18:46:49.162Z,102337.73
2023-05-10T18:49:16.493Z,102337.39
2023-05-10T18:51:43.718Z,102338.96
2023-05-10T18:54:11.034Z,102336.69
2023-05-10T18:56:40.222Z,102340.19
2023-05-10T18:59:07.294Z,102340.02
2023-05-10T19:01:34.313Z,102343.52
2023-05-10T19:04:01.417Z,102342.78
2023-05-10T19:06:28.466Z,102342.79
2023-05-10T19:08:55.525Z,102344.04
2023-05-10T19:11:22.842Z,102349.35
2023-05-10T19:13:49.946Z,102352.35
2023-05-10T19:16:23.053Z,102352.91
2023-05-10T19:18:51.792Z,102349.97
2023-05-10T19:21:18.891Z,102349.45
2023-05-10T19:23:46.029Z,102342.60
2023-05-10T19:26:13.178Z,102341.71
2023-05-10T19:28:40.142Z,102338.90
2023-05-10T19:31:08.545Z,102343.98
2023-05-10T19:33:38.982Z,102342.75
2023-05-10T19:36:07.377Z,102349.28
2023-05-10T19:38:34.417Z,102346.89
2023-05-10T19:41:01.420Z,102345.02
2023-05-10T19:43:31.227Z,102346.85
2023-05-10T19:46:00.054Z,102344.65
2023-05-10T19:48:27.165Z,102343.14
2023-05-10T19:50:54.417Z,102347.73
2023-05-10T19:53:21.385Z,102349.17
2023-05-10T19:55:48.623Z,102348.51
2023-05-10T19:58:15.686Z,102354.38
2023-05-10T20:00:42.677Z,102351.09
2023-05-10T20:03:09.729Z,102351.51
2023-05-10T20:05:36.796Z,102349.33
2023-05-10T20:08:03.819Z,102346.10
2023-05-10T20:10:30.867Z,102346.54
2023-05-10T20:12:58.891Z,102345.61
2023-05-10T20:15:26.054Z,102348.84
2023-05-10T20:17:53.870Z,102347.17
2023-05-10T20:20:21.202Z,102347.02
2023-05-10T20:22:48.587Z,102347.15
2023-05-10T20:25:16.059Z,102343.38
2023-05-10T20:27:43.135Z,102344.98
2023-05-10T20:30:10.596Z,102345.13
2023-05-10T20:32:37.910Z,102342.69
2023-05-10T20:35:05.789Z,102341.91
2023-05-10T20:37:32.974Z,102339.62
2023-05-10T20:40:00.017Z,102341.68
2023-05-10T20:42:27.243Z,102342.83
2023-05-10T20:44:54.232Z,102340.98
2023-05-10T20:47:23.440Z,102339.84
2023-05-10T20:49:50.508Z,102341.86
2023-05-10T20:52:17.467Z,102345.73
2023-05-10T20:54:44.411Z,102344.08
2023-05-10T20:57:14.662Z,102340.77
2023-05-10T20:59:41.685Z,102341.67
2023-05-10T21:02:08.796Z,102336.96
2023-05-10T21:04:35.804Z,102336.45
2023-05-10T21:07:02.771Z,102338.77
2023-05-10T21:09:29.816Z,102335.14
2023-05-10T21:11:56.815Z,102337.48
2023-05-10T21:14:23.863Z,102334.23
2023-05-10T21:16:51.472Z,102334.08
2023-05-10T21:19:19.151Z,102335.00
2023-05-10T21:21:46.173Z,102333.47
2023-05-10T21:24:13.948Z,102333.48
2023-05-10T21:26:41.880Z,102333.67
2023-05-10T21:29:08.945Z,102333.67
2023-05-10T21:31:35.966Z,102336.49
2023-05-10T21:34:02.945Z,102339.30
2023-05-10T21:36:30.223Z,102343.75
2023-05-10T21:38:57.229Z,102344.30
2023-05-10T21:41:24.246Z,102344.22
2023-05-10T21:43:51.314Z,102347.23
2023-05-10T21:46:18.375Z,102345.20
2023-05-10T21:48:45.567Z,102344.71
2023-05-10T21:51:12.707Z,102342.11
2023-05-10T21:53:39.682Z,102340.74
2023-05-10T21:56:07.459Z,102342.84
2023-05-10T21:58:34.634Z,102344.95
2023-05-10T22:01:01.715Z,102344.62
2023-05-10T22:03:28.785Z,102342.02
2023-05-10T22:05:55.803Z,102342.38
2023-05-10T22:08:22.762Z,102339.77
2023-05-10T22:10:50.344Z,102337.84
2023-05-10T22:13:17.358Z,102337.33
2023-05-10T22:15:44.517Z,102339.08
2023-05-10T22:18:11.510Z,102338.02
2023-05-10T22:20:38.520Z,102336.42
2023-05-10T22:23:05.638Z,102335.37
2023-05-10T22:25:32.717Z,102337.29
2023-05-10T22:27:59.649Z,102338.87
2023-05-10T22:30:26.637Z,102337.12
2023-05-10T22:32:53.717Z,102334.00
2023-05-10T22:35:21.172Z,102335.43
2023-05-10T22:37:48.228Z,102332.14
2023-05-10T22:40:15.471Z,102335.69
2023-05-10T22:42:42.513Z,102334.65
2023-05-10T22:45:09.983Z,102336.27
2023-05-10T22:47:36.998Z,102335.58
2023-05-10T22:50:04.493Z,102330.33
2023-05-10T22:52:31.477Z,102330.50
2023-05-10T22:54:58.415Z,102330.15
2023-05-10T22:57:25.845Z,102330.33
2023-05-10T22:59:52.819Z,102333.31
2023-05-10T23:02:19.850Z,102333.34
2023-05-10T23:04:47.169Z,102333.55
2023-05-10T23:07:14.209Z,102335.50
2023-05-10T23:09:41.176Z,102334.85
2023-05-10T23:12:08.381Z,102334.70
2023-05-10T23:14:35.428Z,102335.23
2023-05-10T23:17:02.423Z,102339.23
2023-05-10T23:19:29.369Z,102335.55
2023-05-10T23:21:56.387Z,102333.98
2023-05-10T23:24:23.358Z,102332.73
2023-05-10T23:26:50.529Z,102334.64
2023-05-10T23:29:17.678Z,102330.62
2023-05-10T23:31:48.812Z,102331.13
2023-05-10T23:34:15.769Z,102330.62
2023-05-10T23:36:42.909Z,102330.15
2023-05-10T23:39:09.942Z,102328.08
2023-05-10T23:41:36.888Z,102330.35
2023-05-10T23:44:04.021Z,102329.67
2023-05-10T23:46:31.008Z,102329.52
2023-05-10T23:48:57.960Z,102329.86
2023-05-10T23:51:25.036Z,102329.69
2023-05-10T23:53:51.996Z,102324.98
2023-05-10T23:56:19.031Z,102327.74
2023-05-10T23:58:46.529Z,102329.47
